Time;durP1;ratioP1;P1;durP2;ratioP2;P2;SDS_P1;SDS_P2;PMS_P1;PMS_P2;Temp;Humidity;BMP_temperature;BMP_pressure;BME280_temperature;BME280_humidity;BME280_pressure;Samples;Min_cycle;Max_cycle;Signal;HPM_P1;HPM_P2
2021/06/30 00:01:56;;;;;;;12.57;8.10;;;;;;;22.67;58.11;93882.94;5089016;28;20036;-74
2021/06/30 00:04:21;;;;;;;16.17;8.30;;;;;;;22.64;58.08;93885.25;5090179;28;20532;-74
2021/06/30 00:06:48;;;;;;;16.88;8.70;;;;;;;22.60;58.07;93886.44;5089989;28;20027;-74
2021/06/30 00:09:15;;;;;;;26.02;9.35;;;;;;;22.61;58.62;93880.63;5089002;28;20471;-74
2021/06/30 00:11:40;;;;;;;13.50;9.20;;;;;;;22.60;58.54;93886.44;5088696;28;20123;-74
2021/06/30 00:14:06;;;;;;;25.58;9.43;;;;;;;22.58;58.29;93886.81;5088840;28;20111;-74
2021/06/30 00:16:32;;;;;;;15.63;8.85;;;;;;;22.62;57.91;93889.53;5088756;28;20046;-74
2021/06/30 00:19:00;;;;;;;16.50;8.20;;;;;;;22.60;57.53;93881.78;5088606;28;20028;-74
2021/06/30 00:21:27;;;;;;;17.23;9.02;;;;;;;22.56;57.62;93886.44;5090232;28;20028;-74
2021/06/30 00:23:52;;;;;;;19.95;10.32;;;;;;;22.58;57.68;93889.53;5089666;28;20081;-74
2021/06/30 00:26:18;;;;;;;21.23;9.23;;;;;;;22.56;57.98;93880.22;5090222;28;20028;-73
2021/06/30 00:28:43;;;;;;;18.67;8.95;;;;;;;22.54;58.09;93887.97;5090107;28;20167;-73
2021/06/30 00:31:08;;;;;;;18.85;9.32;;;;;;;22.53;58.56;93887.22;5088633;28;20028;-74
2021/06/30 00:33:34;;;;;;;17.15;9.60;;;;;;;22.55;58.25;93886.81;5089913;28;20058;-74
2021/06/30 00:35:59;;;;;;;15.73;8.73;;;;;;;22.56;58.43;93891.84;5093853;28;20081;-74
2021/06/30 00:38:25;;;;;;;18.30;9.68;;;;;;;22.56;58.50;93891.84;5092969;28;20020;-73
2021/06/30 00:40:50;;;;;;;17.00;9.20;;;;;;;22.49;58.82;93891.06;5092449;28;20036;-74
2021/06/30 00:43:18;;;;;;;16.85;8.52;;;;;;;22.41;59.37;93896.53;5092697;28;20020;-74
2021/06/30 00:45:44;;;;;;;14.90;8.23;;;;;;;22.36;59.53;93896.13;5092333;28;20031;-74
2021/06/30 00:48:10;;;;;;;16.30;8.95;;;;;;;22.32;59.62;93892.63;5092339;28;20111;-74
2021/06/30 00:50:36;;;;;;;14.00;8.52;;;;;;;22.30;59.55;93893.00;5092541;28;20442;-73
2021/06/30 00:53:01;;;;;;;17.27;8.77;;;;;;;22.31;59.61;93910.06;5092187;28;20032;-73
2021/06/30 00:55:27;;;;;;;20.60;9.05;;;;;;;22.30;59.69;93905.81;5093889;28;20032;-74
2021/06/30 00:57:52;;;;;;;16.65;9.60;;;;;;;22.31;59.84;93907.34;5093975;28;20027;-74
2021/06/30 01:00:18;;;;;;;15.10;9.45;;;;;;;22.32;59.56;93906.19;5093547;28;20398;-74
2021/06/30 01:02:43;;;;;;;19.92;8.95;;;;;;;22.33;59.99;93899.63;5093496;28;20052;-73
2021/06/30 01:05:10;;;;;;;20.05;8.48;;;;;;;22.32;59.98;93911.63;5093223;28;20138;-74
2021/06/30 01:07:35;;;;;;;18.85;9.90;;;;;;;22.31;60.12;93907.34;5093429;28;20056;-74
2021/06/30 01:10:01;;;;;;;19.13;9.52;;;;;;;22.29;60.00;93905.03;5093514;28;20063;-74
2021/06/30 01:12:26;;;;;;;17.00;9.77;;;;;;;22.19;60.76;93906.56;5093294;28;20063;-74
2021/06/30 01:14:52;;;;;;;14.05;9.55;;;;;;;22.07;61.01;93904.19;5093271;28;20039;-74
2021/06/30 01:17:17;;;;;;;13.75;9.20;;;;;;;22.04;60.94;93903.03;5091622;28;20097;-74
2021/06/30 01:19:42;;;;;;;20.85;10.63;;;;;;;22.06;61.23;93901.88;5091856;28;20023;-73
2021/06/30 01:22:08;;;;;;;21.05;10.40;;;;;;;22.05;61.10;93895.66;5091500;28;20024;-74
2021/06/30 01:24:35;;;;;;;17.23;9.55;;;;;;;22.03;61.32;93895.28;5093183;28;20023;-74
2021/06/30 01:27:02;;;;;;;17.23;9.80;;;;;;;21.98;61.27;93896.44;5092845;28;20376;-73
2021/06/30 01:29:28;;;;;;;15.73;8.52;;;;;;;21.97;61.57;93888.69;5092156;28;20119;-73
2021/06/30 01:31:53;;;;;;;16.73;9.90;;;;;;;21.95;61.42;93882.84;5092748;28;20031;-73
2021/06/30 01:34:19;;;;;;;18.48;9.38;;;;;;;21.92;61.69;93884.41;5093126;28;20411;-73
2021/06/30 01:36:50;;;;;;;15.30;9.38;;;;;;;21.89;61.81;93889.81;5091601;28;20063;-73
2021/06/30 01:39:16;;;;;;;14.57;9.52;;;;;;;21.84;61.95;93886.31;5091435;28;20034;-74
2021/06/30 01:41:42;;;;;;;18.05;9.68;;;;;;;21.87;61.88;93892.16;5091825;28;20114;-74
2021/06/30 01:44:08;;;;;;;14.35;9.98;;;;;;;21.87;62.17;93889.44;5092759;28;20103;-74
2021/06/30 01:46:34;;;;;;;14.75;11.25;;;;;;;21.80;61.90;93896.41;5090849;28;20039;-74
2021/06/30 01:49:00;;;;;;;14.35;9.43;;;;;;;21.81;62.29;93897.16;5091290;28;20019;-74
2021/06/30 01:51:25;;;;;;;15.55;9.65;;;;;;;21.81;62.23;93903.34;5091372;28;20027;-74
2021/06/30 01:53:58;;;;;;;14.20;9.50;;;;;;;21.79;62.23;93905.69;5091063;28;20039;-74
2021/06/30 01:56:25;;;;;;;15.25;9.35;;;;;;;21.74;62.56;93902.59;5092415;28;20016;-74
2021/06/30 01:59:01;;;;;;;19.08;10.27;;;;;;;21.67;62.92;93903.31;5091030;28;20032;-74
2021/06/30 02:01:27;;;;;;;15.88;9.77;;;;;;;21.67;63.13;93906.03;5092445;28;20020;-74
2021/06/30 02:03:58;;;;;;;17.00;10.13;;;;;;;21.68;62.86;93902.16;5091031;28;20149;-74
2021/06/30 02:06:24;;;;;;;18.65;10.13;;;;;;;21.68;63.04;93904.88;5091005;28;20415;-74
2021/06/30 02:08:51;;;;;;;17.25;9.52;;;;;;;21.63;62.77;93902.53;5092277;28;20032;-74
2021/06/30 02:11:17;;;;;;;14.93;9.18;;;;;;;21.64;62.76;93898.66;5090665;28;20032;-74
2021/06/30 02:13:42;;;;;;;14.68;9.98;;;;;;;21.66;63.02;93904.50;5092059;28;20028;-74
2021/06/30 02:16:08;;;;;;;24.90;9.95;;;;;;;21.63;62.81;93905.25;5090814;28;20032;-74
2021/06/30 02:18:33;;;;;;;19.77;9.98;;;;;;;21.61;63.23;93902.13;5091984;28;20039;-74
2021/06/30 02:20:59;;;;;;;17.55;10.85;;;;;;;21.55;63.36;93909.84;5092063;28;20031;-74
2021/06/30 02:23:24;;;;;;;19.00;10.07;;;;;;;21.54;63.44;93905.59;5092009;28;20118;-74
2021/06/30 02:25:49;;;;;;;17.52;10.43;;;;;;;21.55;63.54;93909.84;5091909;28;20046;-74
2021/06/30 02:28:15;;;;;;;16.25;10.02;;;;;;;21.49;63.68;93905.19;5090267;28;20030;-73
2021/06/30 02:30:40;;;;;;;15.05;10.95;;;;;;;21.48;63.91;93911.78;5091757;28;20035;-74
2021/06/30 02:33:06;;;;;;;17.52;10.27;;;;;;;21.48;63.89;93914.50;5091729;28;20028;-74
2021/06/30 02:35:31;;;;;;;17.17;10.27;;;;;;;21.49;63.83;93910.59;5091761;28;20028;-74
2021/06/30 02:37:58;;;;;;;17.90;10.38;;;;;;;21.46;63.66;93904.03;5090509;28;20107;-74
2021/06/30 02:40:25;;;;;;;18.17;10.07;;;;;;;21.43;63.98;93919.13;5092034;28;20117;-74
2021/06/30 02:42:52;;;;;;;21.95;10.57;;;;;;;21.43;64.00;93916.41;5091375;28;20059;-74
2021/06/30 02:45:19;;;;;;;14.65;10.38;;;;;;;21.42;63.86;93920.25;5091493;28;20028;-74
2021/06/30 02:47:46;;;;;;;19.45;10.35;;;;;;;21.45;63.79;93921.44;5090144;28;20028;-74
2021/06/30 02:50:16;;;;;;;17.58;10.57;;;;;;;21.43;63.85;93927.25;5091664;28;20089;-75
2021/06/30 02:52:43;;;;;;;16.35;10.70;;;;;;;21.44;64.06;93928.03;5089955;28;20540;-74
2021/06/30 02:55:09;;;;;;;19.20;12.23;;;;;;;21.47;63.62;93929.19;5090243;28;20028;-75
2021/06/30 02:57:35;;;;;;;19.45;10.85;;;;;;;21.49;63.29;93926.88;5090179;28;20617;-74
2021/06/30 03:00:02;;;;;;;16.48;11.52;;;;;;;21.51;63.61;93925.34;5091532;28;20130;-74
2021/06/30 03:02:28;;;;;;;21.70;10.90;;;;;;;21.52;63.47;93929.63;5091215;28;20028;-74
2021/06/30 03:04:53;;;;;;;22.20;11.07;;;;;;;21.52;63.74;93934.25;5089827;28;20039;-74
2021/06/30 03:07:18;;;;;;;16.95;10.98;;;;;;;21.53;64.22;93933.09;5089919;28;20020;-74
2021/06/30 03:09:44;;;;;;;15.15;10.88;;;;;;;21.55;63.87;93939.69;5089704;28;20218;-74
2021/06/30 03:12:09;;;;;;;17.80;11.18;;;;;;;21.57;63.78;93944.72;5089693;28;20031;-74
2021/06/30 03:14:35;;;;;;;23.52;11.55;;;;;;;21.59;63.88;93945.91;5089653;28;20028;-74
2021/06/30 03:17:00;;;;;;;19.45;11.82;;;;;;;21.59;64.01;93940.47;5089700;28;20031;-74
2021/06/30 03:19:26;;;;;;;19.45;12.82;;;;;;;21.64;63.91;93944.78;5089594;28;20073;-74
2021/06/30 03:21:51;;;;;;;19.73;12.30;;;;;;;21.67;63.92;93945.94;5089505;28;20082;-74
2021/06/30 03:24:17;;;;;;;18.65;11.93;;;;;;;21.69;63.67;93940.91;5089463;28;20094;-74
2021/06/30 03:26:42;;;;;;;18.17;11.68;;;;;;;21.71;63.69;93935.88;5089059;28;20081;-74
2021/06/30 03:29:08;;;;;;;14.68;11.70;;;;;;;21.72;63.60;93943.66;5089520;28;20058;-74
2021/06/30 03:31:34;;;;;;;19.27;12.85;;;;;;;21.76;63.69;93943.66;5090814;28;20387;-74
2021/06/30 03:34:00;;;;;;;19.55;12.00;;;;;;;21.77;63.98;93940.56;5089394;28;20470;-74
2021/06/30 03:36:26;;;;;;;24.80;13.85;;;;;;;21.74;64.02;93941.31;5089425;28;20035;-74
2021/06/30 03:38:51;;;;;;;25.70;14.07;;;;;;;21.75;64.36;93936.66;5089339;28;20114;-74
2021/06/30 03:41:17;;;;;;;22.20;13.15;;;;;;;21.76;64.29;93925.44;5090572;28;20024;-74
2021/06/30 03:43:42;;;;;;;19.48;12.88;;;;;;;21.77;64.55;93913.41;5089157;28;20020;-74
2021/06/30 03:46:09;;;;;;;20.05;12.48;;;;;;;21.79;64.20;93932.03;5089247;28;20024;-74
2021/06/30 03:48:35;;;;;;;19.80;11.57;;;;;;;21.78;64.92;93928.56;5090230;28;20395;-74
2021/06/30 03:51:00;;;;;;;24.13;14.63;;;;;;;21.82;64.69;93929.34;5090283;28;20030;-74
2021/06/30 03:53:26;;;;;;;18.55;12.05;;;;;;;21.83;64.73;93933.59;5090991;28;20052;-74
2021/06/30 03:55:51;;;;;;;20.02;11.93;;;;;;;21.91;64.61;93934.41;5088842;28;20024;-74
2021/06/30 03:58:16;;;;;;;16.63;11.77;;;;;;;21.95;64.40;93937.91;5088895;28;20020;-74
2021/06/30 04:00:42;;;;;;;19.60;12.60;;;;;;;21.98;64.68;93939.06;5088941;28;20023;-74
2021/06/30 04:03:07;;;;;;;21.30;13.40;;;;;;;22.02;64.46;93948.00;5090030;28;20467;-74
2021/06/30 04:05:33;;;;;;;23.00;13.13;;;;;;;22.05;64.19;93955.38;5089026;28;20165;-75
2021/06/30 04:07:58;;;;;;;22.45;12.38;;;;;;;22.04;64.28;93960.03;5088660;28;20024;-74
2021/06/30 04:10:23;;;;;;;25.27;11.88;;;;;;;22.06;64.19;93954.19;5088854;28;20543;-74
2021/06/30 04:12:49;;;;;;;26.92;13.50;;;;;;;22.11;63.81;93937.56;5089833;28;20028;-74
2021/06/30 04:15:14;;;;;;;19.00;12.57;;;;;;;22.16;63.61;93939.88;5089995;28;20030;-74
2021/06/30 04:17:40;;;;;;;27.77;14.82;;;;;;;22.24;63.18;93936.03;5088672;28;20113;-74
2021/06/30 04:20:09;;;;;;;21.60;14.23;;;;;;;22.32;63.28;93936.06;5090005;28;20032;-73
2021/06/30 04:22:35;;;;;;;22.98;14.82;;;;;;;22.36;63.59;93931.41;5088475;28;20055;-74
2021/06/30 04:25:05;;;;;;;24.02;14.93;;;;;;;22.41;63.08;93939.97;5088419;28;20042;-74
2021/06/30 04:27:31;;;;;;;26.08;15.40;;;;;;;22.47;62.76;93931.41;5088628;28;20028;-73
2021/06/30 04:29:57;;;;;;;23.23;14.38;;;;;;;22.52;62.58;93948.13;5090017;28;20024;-74
2021/06/30 04:32:23;;;;;;;24.27;14.48;;;;;;;22.57;62.20;93952.38;5088621;28;20039;-73
2021/06/30 04:34:48;;;;;;;23.83;13.70;;;;;;;22.59;62.16;93961.72;5089963;28;20024;-73
2021/06/30 04:37:14;;;;;;;23.63;14.23;;;;;;;22.63;61.70;93962.50;5089866;28;20020;-73
2021/06/30 04:39:39;;;;;;;26.58;14.05;;;;;;;22.69;61.16;93949.28;5090040;28;20490;-73
2021/06/30 04:42:05;;;;;;;19.02;14.10;;;;;;;22.75;61.18;93952.38;5089806;28;20376;-73
2021/06/30 04:44:30;;;;;;;22.92;14.45;;;;;;;22.80;61.92;93949.31;5089876;28;20022;-74
2021/06/30 04:46:55;;;;;;;25.80;14.38;;;;;;;22.84;62.16;93961.72;5089689;28;20085;-74
2021/06/30 04:49:21;;;;;;;26.23;15.77;;;;;;;22.89;62.49;93957.81;5088355;28;20034;-73
2021/06/30 04:51:46;;;;;;;28.33;18.15;;;;;;;22.89;62.14;93957.06;5090263;28;20578;-73
2021/06/30 04:54:12;;;;;;;22.20;14.90;;;;;;;22.93;61.07;93950.44;5087940;28;20024;-73
2021/06/30 04:56:41;;;;;;;25.10;16.45;;;;;;;22.97;61.24;93950.44;5088585;28;20031;-73
2021/06/30 04:59:07;;;;;;;27.27;17.38;;;;;;;22.98;60.95;93941.91;5089739;28;20506;-73
2021/06/30 05:01:33;;;;;;;26.73;16.73;;;;;;;23.02;61.18;93947.38;5088353;28;20414;-73
2021/06/30 05:03:59;;;;;;;22.40;15.90;;;;;;;23.09;60.83;93952.03;5088708;28;20034;-73
2021/06/30 05:06:24;;;;;;;32.45;17.40;;;;;;;23.12;61.00;93951.22;5087855;28;20877;-73
2021/06/30 05:08:50;;;;;;;21.77;16.02;;;;;;;23.13;60.89;93953.56;5089469;28;20020;-72
2021/06/30 05:11:15;;;;;;;38.25;17.25;;;;;;;23.20;60.91;93950.06;5088038;28;20430;-73
2021/06/30 05:13:40;;;;;;;37.42;16.75;;;;;;;23.25;60.92;93952.38;5088257;28;20035;-74
2021/06/30 05:16:06;;;;;;;31.58;15.90;;;;;;;23.33;60.41;93948.47;5090073;28;20039;-74
2021/06/30 05:18:32;;;;;;;23.98;15.02;;;;;;;23.42;60.98;93950.78;5089804;28;20020;-74
2021/06/30 05:20:57;;;;;;;26.55;16.95;;;;;;;23.56;60.68;93947.25;5092474;28;20036;-74
2021/06/30 05:23:22;;;;;;;23.88;14.93;;;;;;;23.68;60.45;93957.69;5093311;28;20062;-74
2021/06/30 05:25:48;;;;;;;32.58;16.10;;;;;;;23.78;60.36;93946.03;5093772;28;20473;-74
2021/06/30 05:28:13;;;;;;;25.02;14.30;;;;;;;23.92;60.36;93955.31;5093519;28;20024;-75
2021/06/30 05:30:39;;;;;;;23.63;14.55;;;;;;;24.02;59.79;93949.03;5093220;28;20019;-74
2021/06/30 05:33:04;;;;;;;31.23;14.75;;;;;;;24.10;58.94;93960.66;5092212;28;20032;-75
2021/06/30 05:35:30;;;;;;;21.67;14.38;;;;;;;24.11;58.54;93968.44;5092941;28;20051;-74
2021/06/30 05:37:56;;;;;;;30.00;15.63;;;;;;;24.15;58.04;93966.47;5093150;28;20433;-74
2021/06/30 05:40:21;;;;;;;28.90;15.60;;;;;;;24.19;58.06;93959.06;5092705;28;20047;-72
2021/06/30 05:42:47;;;;;;;25.95;15.25;;;;;;;24.27;58.00;93965.25;5092344;28;20016;-71
2021/06/30 05:45:16;;;;;;;33.88;14.50;;;;;;;24.36;58.01;93972.97;5091973;28;20024;-69
2021/06/30 05:47:44;;;;;;;27.27;15.23;;;;;;;24.43;58.00;93968.25;5092085;28;20028;-69
2021/06/30 05:50:12;;;;;;;23.23;15.02;;;;;;;24.49;57.70;93965.13;5092049;28;20028;-69
2021/06/30 05:52:38;;;;;;;31.33;16.15;;;;;;;24.55;56.67;93969.78;5093840;28;20399;-69
2021/06/30 05:55:05;;;;;;;35.03;15.63;;;;;;;24.53;56.69;93966.66;5092455;28;20031;-69
2021/06/30 05:57:31;;;;;;;33.63;15.95;;;;;;;24.52;57.58;93962.38;5092195;28;20020;-69
2021/06/30 05:59:56;;;;;;;27.85;16.27;;;;;;;24.52;57.75;93967.06;5092266;28;20031;-69
2021/06/30 06:02:22;;;;;;;23.52;14.82;;;;;;;24.48;57.44;93964.31;5091097;28;20020;-69
2021/06/30 06:04:47;;;;;;;23.40;15.10;;;;;;;24.42;57.14;93961.28;5090673;28;20036;-69
2021/06/30 06:07:12;;;;;;;31.52;15.30;;;;;;;24.51;57.29;93957.34;5086709;28;20020;-69
2021/06/30 06:09:38;;;;;;;31.08;16.48;;;;;;;24.56;57.48;93959.63;5090703;28;20024;-69
2021/06/30 06:12:03;;;;;;;27.33;16.00;;;;;;;24.65;57.71;93961.91;5090767;28;20031;-68
2021/06/30 06:14:29;;;;;;;24.52;15.18;;;;;;;24.77;57.40;93962.22;5090590;28;20481;-68
2021/06/30 06:16:56;;;;;;;25.25;13.60;;;;;;;24.92;57.24;93968.31;5090307;28;20437;-68
2021/06/30 06:19:22;;;;;;;28.23;15.32;;;;;;;25.00;56.34;93967.09;5092046;28;20426;-68
2021/06/30 06:21:48;;;;;;;27.65;15.85;;;;;;;25.09;55.87;93960.41;5089949;28;20023;-68
2021/06/30 06:24:13;;;;;;;30.08;16.08;;;;;;;25.11;56.32;93966.22;5090155;28;20043;-68
2021/06/30 06:26:39;;;;;;;24.67;14.82;;;;;;;25.18;56.60;93966.94;5091449;28;20020;-68
2021/06/30 06:29:04;;;;;;;22.42;14.10;;;;;;;25.29;55.90;93966.09;5091366;28;20083;-68
2021/06/30 06:31:30;;;;;;;27.85;14.30;;;;;;;25.30;55.57;93971.16;5090068;28;20146;-68
2021/06/30 06:33:55;;;;;;;24.10;14.60;;;;;;;25.38;54.09;93972.63;5091107;28;20457;-68
2021/06/30 06:36:21;;;;;;;23.73;13.98;;;;;;;25.29;54.09;93958.66;5091343;28;20072;-68
2021/06/30 06:38:47;;;;;;;25.92;14.02;;;;;;;25.32;54.76;93952.41;5089738;28;20031;-69
2021/06/30 06:41:13;;;;;;;37.30;14.63;;;;;;;25.39;54.86;93963.25;5091386;28;20034;-69
2021/06/30 06:43:42;;;;;;;26.63;14.45;;;;;;;25.43;54.12;93953.06;5091038;28;20437;-69
2021/06/30 06:46:08;;;;;;;31.05;15.05;;;;;;;25.44;54.34;93951.09;5090938;28;20470;-69
2021/06/30 06:48:33;;;;;;;30.52;13.77;;;;;;;25.42;54.22;93953.47;5091125;28;20089;-68
2021/06/30 06:50:59;;;;;;;29.10;13.95;;;;;;;25.40;54.24;93950.38;5089503;28;20028;-70
2021/06/30 06:53:24;;;;;;;28.02;13.48;;;;;;;25.49;54.16;93950.69;5091193;28;20364;-70
2021/06/30 06:55:51;;;;;;;16.83;13.02;;;;;;;25.61;54.18;93946.66;5091001;28;20031;-69
2021/06/30 06:58:16;;;;;;;23.98;13.57;;;;;;;25.66;53.35;93946.19;5089729;28;20019;-70
2021/06/30 07:00:42;;;;;;;26.20;14.25;;;;;;;25.43;53.76;93939.44;5091214;28;20148;-69
2021/06/30 07:03:07;;;;;;;26.65;12.63;;;;;;;25.53;53.99;93937.00;5090883;28;20054;-70
2021/06/30 07:05:32;;;;;;;21.30;13.50;;;;;;;25.63;54.71;93941.56;5089583;28;20046;-69
2021/06/30 07:07:58;;;;;;;20.77;13.98;;;;;;;25.68;54.36;93943.84;5090451;28;20030;-70
2021/06/30 07:10:23;;;;;;;21.52;13.68;;;;;;;25.73;54.45;93940.66;5090718;28;20082;-69
2021/06/30 07:12:49;;;;;;;21.80;14.52;;;;;;;25.86;53.18;93931.94;5090756;28;20081;-69
2021/06/30 07:15:14;;;;;;;27.30;15.10;;;;;;;25.91;52.51;93935.03;5090552;28;20039;-69
2021/06/30 07:17:39;;;;;;;24.52;12.70;;;;;;;26.01;52.30;93934.13;5089682;28;20076;-69
2021/06/30 07:20:07;;;;;;;25.27;14.23;;;;;;;26.14;52.51;93939.03;5089132;28;20067;-69
2021/06/30 07:22:33;;;;;;;23.88;14.30;;;;;;;26.21;52.82;93936.94;5090729;28;20094;-69
2021/06/30 07:24:58;;;;;;;21.35;13.23;;;;;;;26.36;51.80;93934.03;5090507;28;20449;-70
2021/06/30 07:27:24;;;;;;;31.00;14.45;;;;;;;26.43;50.98;93926.50;5089214;28;20383;-70
2021/06/30 07:29:49;;;;;;;27.30;12.05;;;;;;;26.46;50.90;93924.13;5090660;28;20403;-68
2021/06/30 07:32:15;;;;;;;28.85;12.50;;;;;;;26.57;50.47;93925.53;5087350;28;20031;-68
2021/06/30 07:34:40;;;;;;;18.25;10.85;;;;;;;26.69;49.43;93917.97;5090475;28;20035;-69
2021/06/30 07:37:05;;;;;;;20.20;11.13;;;;;;;26.79;48.92;93917.00;5088966;28;20027;-69
2021/06/30 07:39:31;;;;;;;16.13;10.20;;;;;;;26.89;48.98;93912.53;5090229;28;20028;-69
2021/06/30 07:41:56;;;;;;;16.02;10.23;;;;;;;26.96;48.29;93920.63;5090434;28;20024;-68
2021/06/30 07:44:22;;;;;;;17.10;9.80;;;;;;;27.08;48.30;93913.78;5089682;28;20035;-68
2021/06/30 07:46:48;;;;;;;21.02;9.85;;;;;;;27.18;47.34;93913.59;5089057;28;20088;-68
2021/06/30 07:49:14;;;;;;;18.20;9.73;;;;;;;27.27;47.60;93904.09;5090291;28;20107;-68
2021/06/30 07:51:39;;;;;;;20.73;9.80;;;;;;;27.17;47.50;93911.28;5090335;28;20387;-69
2021/06/30 07:54:05;;;;;;;25.02;10.98;;;;;;;27.21;47.56;93901.03;5088903;28;20026;-69
2021/06/30 07:56:33;;;;;;;20.75;9.25;;;;;;;27.31;47.55;93905.56;5089979;28;20028;-69
2021/06/30 07:59:10;;;;;;;25.98;10.18;;;;;;;27.41;46.15;93901.09;5090116;28;20020;-68
2021/06/30 08:01:36;;;;;;;15.43;8.93;;;;;;;27.50;45.82;93897.78;5088381;28;20020;-70
2021/06/30 08:04:03;;;;;;;15.68;10.27;;;;;;;27.50;46.14;93911.47;5088830;28;20502;-68
2021/06/30 08:06:29;;;;;;;22.67;11.10;;;;;;;27.41;46.71;93904.59;5091053;28;20058;-70
2021/06/30 08:08:54;;;;;;;23.17;10.07;;;;;;;27.45;46.74;93904.53;5090039;28;20110;-69
2021/06/30 08:11:23;;;;;;;21.70;10.80;;;;;;;27.56;48.01;93899.63;5090133;28;20398;-69
2021/06/30 08:13:52;;;;;;;20.63;10.57;;;;;;;27.69;47.41;93896.25;5089585;28;20031;-69
2021/06/30 08:16:19;;;;;;;18.15;10.23;;;;;;;27.73;47.01;93892.25;5089960;28;20028;-68
2021/06/30 08:18:44;;;;;;;22.15;10.85;;;;;;;27.84;47.23;93896.72;5089736;28;20020;-68
2021/06/30 08:21:10;;;;;;;23.77;10.80;;;;;;;27.93;46.86;93905.94;5089898;28;20024;-68
2021/06/30 08:23:35;;;;;;;18.98;11.00;;;;;;;28.04;46.44;93908.47;5087928;28;20051;-68
2021/06/30 08:26:00;;;;;;;22.55;10.30;;;;;;;28.16;46.33;93893.34;5089708;28;20065;-69
2021/06/30 08:28:27;;;;;;;24.83;10.60;;;;;;;28.26;46.25;93897.03;5089824;28;20468;-68
2021/06/30 08:30:53;;;;;;;16.73;8.60;;;;;;;28.36;46.32;93894.06;5088025;28;20024;-69
2021/06/30 08:33:19;;;;;;;18.98;9.35;;;;;;;28.49;46.41;93890.63;5088499;28;20093;-69
2021/06/30 08:35:44;;;;;;;20.45;9.25;;;;;;;28.60;46.37;93889.22;5089516;28;20024;-69
2021/06/30 08:38:10;;;;;;;19.70;9.10;;;;;;;28.70;45.50;93892.13;5089761;28;20059;-69
2021/06/30 08:40:37;;;;;;;24.48;11.50;;;;;;;28.82;45.12;93888.69;5089677;28;20036;-69
2021/06/30 08:43:04;;;;;;;31.17;10.70;;;;;;;28.89;43.91;93888.53;5089606;28;20027;-69
2021/06/30 08:45:29;;;;;;;24.67;10.23;;;;;;;28.85;43.77;93884.34;5089678;28;20067;-69
2021/06/30 08:47:55;;;;;;;18.52;10.43;;;;;;;28.87;43.65;93888.19;5089445;28;20490;-69
2021/06/30 08:50:22;;;;;;;26.17;9.65;;;;;;;28.83;44.05;93887.50;5089716;28;20498;-69
2021/06/30 08:52:48;;;;;;;15.38;9.75;;;;;;;28.90;44.48;93886.53;5088059;28;20070;-68
2021/06/30 08:55:16;;;;;;;18.92;8.55;;;;;;;28.98;44.78;93888.69;5089554;28;20026;-68
2021/06/30 08:57:44;;;;;;;18.58;8.93;;;;;;;29.13;44.39;93888.34;5093591;28;20020;-69
2021/06/30 09:00:11;;;;;;;18.83;10.10;;;;;;;29.24;44.50;93883.34;5093296;28;20035;-69
2021/06/30 09:02:36;;;;;;;17.83;10.43;;;;;;;29.34;43.90;93882.28;5093581;28;20430;-68
2021/06/30 09:05:15;;;;;;;21.17;9.55;;;;;;;29.42;43.95;93888.34;5091858;28;20039;-68
2021/06/30 09:07:41;;;;;;;12.75;8.07;;;;;;;29.50;43.90;93884.22;5092130;28;20474;-69
2021/06/30 09:10:07;;;;;;;27.00;11.32;;;;;;;29.54;43.76;93886.88;5093110;28;20099;-69
2021/06/30 09:12:39;;;;;;;25.77;11.38;;;;;;;29.53;42.72;93879.81;5093211;28;20088;-70
2021/06/30 09:15:18;;;;;;;17.33;9.23;;;;;;;29.57;43.36;93881.28;5093034;28;20089;-70
2021/06/30 09:17:46;;;;;;;11.07;8.63;;;;;;;29.63;43.08;93883.47;5092007;28;20020;-70
2021/06/30 09:20:12;;;;;;;23.85;10.73;;;;;;;29.68;42.95;93875.47;5091488;28;20039;-70
2021/06/30 09:22:39;;;;;;;22.13;10.70;;;;;;;29.68;42.78;93871.97;5092610;28;20490;-69
2021/06/30 09:25:05;;;;;;;21.58;11.38;;;;;;;29.62;42.80;93869.00;5092805;28;20043;-69
2021/06/30 09:27:45;;;;;;;21.35;10.10;;;;;;;29.64;43.26;93858.34;5096109;28;20024;-69
2021/06/30 09:30:13;;;;;;;14.00;8.35;;;;;;;29.68;43.18;93870.00;5094507;28;20103;-69
2021/06/30 09:33:11;;;;;;;21.70;10.80;;;;;;;29.77;42.33;93872.13;5094933;28;20036;-69
2021/06/30 09:35:36;;;;;;;15.07;8.43;;;;;;;29.82;42.96;93866.09;5069800;28;20086;-70
2021/06/30 09:38:32;;;;;;;11.38;8.75;;;;;;;29.96;42.47;93862.94;5091452;28;20055;-70
2021/06/30 09:40:58;;;;;;;11.25;7.85;;;;;;;30.08;42.49;93864.13;5091685;28;20090;-70
2021/06/30 09:43:31;;;;;;;13.80;8.60;;;;;;;30.18;42.24;93854.03;5091199;28;20481;-69
2021/06/30 09:45:59;;;;;;;28.63;10.20;;;;;;;30.29;42.69;93853.72;5092695;28;20035;-69
2021/06/30 09:48:35;;;;;;;16.58;9.90;;;;;;;30.37;42.00;93850.31;5092238;28;20032;-70
2021/06/30 09:51:02;;;;;;;14.30;9.13;;;;;;;30.49;41.63;93837.78;5092783;28;20028;-69
2021/06/30 09:53:40;;;;;;;12.73;9.13;;;;;;;30.57;41.49;93838.28;5092251;28;20031;-69
2021/06/30 09:56:32;;;;;;;12.68;9.05;;;;;;;30.67;41.57;93830.91;5091095;28;20448;-70
2021/06/30 09:59:13;;;;;;;19.75;9.73;;;;;;;30.78;41.56;93842.34;5092956;28;20049;-71
2021/06/30 10:01:38;;;;;;;16.33;8.73;;;;;;;30.88;41.43;93821.97;5093060;28;20111;-70
2021/06/30 10:04:05;;;;;;;12.25;7.82;;;;;;;30.97;40.68;93824.81;5091197;28;20030;-72
2021/06/30 10:06:33;;;;;;;16.88;9.52;;;;;;;31.07;40.25;93822.91;5091895;28;20110;-69
2021/06/30 10:09:00;;;;;;;12.40;8.93;;;;;;;31.14;39.86;93817.16;5091465;28;20118;-71
2021/06/30 10:11:28;;;;;;;19.80;9.77;;;;;;;31.23;40.30;93810.94;5092283;28;20028;-70
2021/06/30 10:13:54;;;;;;;26.08;10.38;;;;;;;31.29;39.73;93803.66;5092390;28;20082;-71
2021/06/30 10:16:22;;;;;;;19.73;9.70;;;;;;;31.40;39.59;93814.28;5092442;28;20055;-71
2021/06/30 10:18:56;;;;;;;22.95;10.60;;;;;;;31.45;40.35;93807.44;5091250;28;20024;-70
2021/06/30 10:21:29;;;;;;;17.25;9.43;;;;;;;31.52;40.38;93804.44;5090797;28;20525;-70
2021/06/30 10:23:55;;;;;;;17.13;9.85;;;;;;;31.55;38.82;93804.31;5092636;28;20040;-71
2021/06/30 10:26:21;;;;;;;22.48;10.68;;;;;;;31.56;38.37;93799.56;5091729;28;20047;-70
2021/06/30 10:28:53;;;;;;;15.68;9.18;;;;;;;31.44;39.34;93790.16;5090571;28;20380;-70
2021/06/30 10:31:19;;;;;;;16.05;8.93;;;;;;;31.42;40.29;93792.56;5091787;28;20024;-70
2021/06/30 10:33:59;;;;;;;17.73;8.63;;;;;;;31.46;39.96;93795.97;5092091;28;20020;-70
2021/06/30 10:36:54;;;;;;;20.15;9.20;;;;;;;31.52;39.65;93793.41;5090754;28;20072;-70
2021/06/30 10:39:39;;;;;;;16.23;9.27;;;;;;;31.57;39.51;93792.84;5091769;28;20020;-71
2021/06/30 10:42:21;;;;;;;16.08;8.85;;;;;;;31.66;39.27;93790.13;5084286;28;20085;-71
2021/06/30 10:44:58;;;;;;;15.27;9.70;;;;;;;31.69;38.75;93791.22;5090295;28;20028;-69
2021/06/30 10:47:42;;;;;;;23.63;9.80;;;;;;;31.75;39.77;93783.91;5091687;28;20077;-70
2021/06/30 10:50:17;;;;;;;16.98;10.23;;;;;;;31.88;38.97;93784.59;5090224;28;20024;-70
2021/06/30 10:52:44;;;;;;;13.70;8.43;;;;;;;31.94;39.04;93777.25;5090947;28;20024;-71
2021/06/30 10:55:52;;;;;;;15.73;9.27;;;;;;;32.04;39.09;93782.81;5091607;28;20414;-70
2021/06/30 10:58:18;;;;;;;13.55;9.15;;;;;;;32.09;38.81;93771.97;5090891;28;20035;-70
2021/06/30 11:00:44;;;;;;;19.08;10.52;;;;;;;32.20;39.08;93774.31;5090079;28;20114;-70
2021/06/30 11:03:26;;;;;;;17.58;8.40;;;;;;;32.33;38.64;93765.94;5089659;28;20024;-71
2021/06/30 11:05:52;;;;;;;;;;;;;;;32.42;38.52;93754.13;5091357;28;20040;-71
2021/06/30 11:08:37;;;;;;;15.52;9.15;;;;;;;32.51;38.41;93763.19;5089907;28;19912;-70
2021/06/30 11:11:02;;;;;;;21.80;9.25;;;;;;;32.62;38.23;93762.78;5090897;28;20031;-72
2021/06/30 11:13:57;;;;;;;17.83;9.25;;;;;;;32.76;38.78;93758.66;5089485;28;20028;-70
2021/06/30 11:16:45;;;;;;;17.08;8.95;;;;;;;32.85;38.63;93755.13;5089744;28;20032;-72
2021/06/30 11:19:17;;;;;;;15.02;10.07;;;;;;;32.94;37.85;93753.13;5088893;28;20040;-72
2021/06/30 11:21:48;;;;;;;17.67;8.43;;;;;;;33.06;37.64;93747.94;5089252;28;20035;-70